createdAt,value
2022-12-25T00:01:49.303Z,6.64
2022-12-25T00:04:17.449Z,6.59
2022-12-25T00:06:44.199Z,6.52
2022-12-25T00:09:10.848Z,6.48
2022-12-25T00:11:38.157Z,6.44
2022-12-25T00:14:04.858Z,6.38
2022-12-25T00:16:31.532Z,6.33
2022-12-25T00:18:58.166Z,6.27
2022-12-25T00:21:26.975Z,6.20
2022-12-25T00:23:54.299Z,6.15
2022-12-25T00:26:21.552Z,6.11
2022-12-25T00:28:48.322Z,6.06
2022-12-25T00:31:17.540Z,6.02
2022-12-25T00:33:46.166Z,5.97
2022-12-25T00:36:15.049Z,5.91
2022-12-25T00:38:43.538Z,5.86
2022-12-25T00:41:12.166Z,5.81
2022-12-25T00:43:39.179Z,5.77
2022-12-25T00:46:06.875Z,5.73
2022-12-25T00:48:34.779Z,5.68
2022-12-25T00:51:03.276Z,5.63
2022-12-25T00:53:30.444Z,5.60
2022-12-25T00:56:00.055Z,5.56
2022-12-25T00:58:28.950Z,5.51
2022-12-25T01:00:55.806Z,5.47
2022-12-25T01:03:23.499Z,5.45
2022-12-25T01:05:56.140Z,5.41
2022-12-25T01:08:22.846Z,5.36
2022-12-25T01:10:54.770Z,5.33
2022-12-25T01:13:22.869Z,5.30
2022-12-25T01:15:49.960Z,5.26
2022-12-25T01:18:16.605Z,5.23
2022-12-25T01:20:43.309Z,5.21
2022-12-25T01:23:10.026Z,5.19
2022-12-25T01:25:36.610Z,5.16
2022-12-25T01:28:03.428Z,5.14
2022-12-25T01:30:31.463Z,5.13
2022-12-25T01:32:58.381Z,5.10
2022-12-25T01:35:25.378Z,5.06
2022-12-25T01:37:52.246Z,5.03
2022-12-25T01:40:19.148Z,4.98
2022-12-25T01:42:46.140Z,4.93
2022-12-25T01:45:35.595Z,4.90
2022-12-25T01:48:05.806Z,4.86
2022-12-25T01:50:34.099Z,4.81
2022-12-25T01:53:00.822Z,4.79
2022-12-25T01:55:27.803Z,4.75
2022-12-25T01:57:54.751Z,4.71
2022-12-25T02:00:21.468Z,4.68
2022-12-25T02:02:49.711Z,4.65
2022-12-25T02:05:22.864Z,4.62
2022-12-25T02:07:50.227Z,4.57
2022-12-25T02:10:17.805Z,4.54
2022-12-25T02:12:45.382Z,4.49
2022-12-25T02:15:15.375Z,4.47
2022-12-25T02:17:49.677Z,4.42
2022-12-25T02:20:45.552Z,4.38
2022-12-25T02:23:57.784Z,4.32
2022-12-25T02:26:59.567Z,4.28
2022-12-25T02:29:33.387Z,4.21
2022-12-25T02:32:05.670Z,4.17
2022-12-25T02:34:35.497Z,4.13
2022-12-25T02:37:06.581Z,4.09
2022-12-25T02:39:48.906Z,4.05
2022-12-25T02:42:22.385Z,4.01
2022-12-25T02:44:51.860Z,3.97
2022-12-25T02:47:19.836Z,3.94
2022-12-25T02:49:47.602Z,3.90
2022-12-25T02:52:19.769Z,3.86
2022-12-25T02:54:51.188Z,3.82
2022-12-25T02:57:21.546Z,3.79
2022-12-25T02:59:54.073Z,3.77
2022-12-25T03:02:23.460Z,3.75
2022-12-25T03:04:52.980Z,3.71
2022-12-25T03:07:22.391Z,3.67
2022-12-25T03:09:54.967Z,3.64
2022-12-25T03:12:31.126Z,3.60
2022-12-25T03:14:59.200Z,3.57
2022-12-25T03:17:26.328Z,3.52
2022-12-25T03:19:53.035Z,3.49
2022-12-25T03:22:24.424Z,3.47
2022-12-25T03:24:51.429Z,3.43
2022-12-25T03:27:18.062Z,3.40
2022-12-25T03:29:44.767Z,3.36
2022-12-25T03:32:23.246Z,3.33
2022-12-25T03:34:57.083Z,3.30
2022-12-25T03:37:31.808Z,3.26
2022-12-25T03:40:07.480Z,3.22
2022-12-25T03:42:42.695Z,3.18
2022-12-25T03:45:16.341Z,3.15
2022-12-25T03:47:47.421Z,3.11
2022-12-25T03:50:19.744Z,3.09
2022-12-25T03:52:48.231Z,3.06
2022-12-25T03:55:17.110Z,3.03
2022-12-25T03:57:43.811Z,3.01
2022-12-25T04:00:11.344Z,3.00
2022-12-25T04:02:38.515Z,2.96
2022-12-25T04:05:07.614Z,2.93
2022-12-25T04:07:34.368Z,2.92
2022-12-25T04:10:01.067Z,2.89
2022-12-25T04:12:27.670Z,2.85
2022-12-25T04:14:54.352Z,2.83
2022-12-25T04:17:21.039Z,2.80
2022-12-25T04:19:47.649Z,2.77
2022-12-25T04:22:15.747Z,2.76
2022-12-25T04:24:42.420Z,2.72
2022-12-25T04:27:09.115Z,2.70
2022-12-25T04:29:35.687Z,2.67
2022-12-25T04:32:02.404Z,2.65
2022-12-25T04:34:29.082Z,2.62
2022-12-25T04:36:55.719Z,2.59
2022-12-25T04:39:23.757Z,2.57
2022-12-25T04:41:50.408Z,2.55
2022-12-25T04:44:17.105Z,2.51
2022-12-25T04:46:43.837Z,2.48
2022-12-25T04:49:10.635Z,2.46
2022-12-25T04:51:37.331Z,2.45
2022-12-25T04:54:04.192Z,2.43
2022-12-25T04:56:33.228Z,2.40
2022-12-25T04:58:59.967Z,2.39
2022-12-25T05:01:27.229Z,2.37
2022-12-25T05:03:54.052Z,2.36
2022-12-25T05:06:21.015Z,2.35
2022-12-25T05:08:47.634Z,2.33
2022-12-25T05:11:15.734Z,2.33
2022-12-25T05:13:44.252Z,2.33
2022-12-25T05:16:14.020Z,2.31
2022-12-25T05:18:40.918Z,2.31
2022-12-25T05:21:08.074Z,2.30
2022-12-25T05:23:34.987Z,2.30
2022-12-25T05:26:04.860Z,2.28
2022-12-25T05:28:31.529Z,2.26
2022-12-25T05:30:59.678Z,2.25
2022-12-25T05:33:26.471Z,2.24
2022-12-25T05:35:53.175Z,2.22
2022-12-25T05:38:19.782Z,2.20
2022-12-25T05:40:46.445Z,2.20
2022-12-25T05:43:13.076Z,2.17
2022-12-25T05:45:39.704Z,2.17
2022-12-25T05:48:09.637Z,2.15
2022-12-25T05:50:36.935Z,2.12
2022-12-25T05:53:08.084Z,2.09
2022-12-25T05:55:35.688Z,2.07
2022-12-25T05:58:02.538Z,2.06
2022-12-25T06:00:29.175Z,2.05
2022-12-25T06:02:56.020Z,2.04
2022-12-25T06:05:24.627Z,2.03
2022-12-25T06:07:51.309Z,2.02
2022-12-25T06:10:18.276Z,2.03
2022-12-25T06:12:44.928Z,2.01
2022-12-25T06:15:11.784Z,2.01
2022-12-25T06:17:38.623Z,2.01
2022-12-25T06:20:06.844Z,2.01
2022-12-25T06:22:35.576Z,2.00
2022-12-25T06:25:02.338Z,2.00
2022-12-25T06:27:29.072Z,1.99
2022-12-25T06:29:55.803Z,1.99
2022-12-25T06:32:22.603Z,1.97
2022-12-25T06:34:49.251Z,1.97
2022-12-25T06:37:15.921Z,1.96
2022-12-25T06:39:43.890Z,1.96
2022-12-25T06:42:10.539Z,1.95
2022-12-25T06:44:38.334Z,1.93
2022-12-25T06:47:05.241Z,1.92
2022-12-25T06:49:31.936Z,1.91
2022-12-25T06:51:58.623Z,1.90
2022-12-25T06:54:25.290Z,1.89
2022-12-25T06:56:53.291Z,1.90
2022-12-25T06:59:20.104Z,1.89
2022-12-25T07:01:49.230Z,1.88
2022-12-25T07:04:20.890Z,1.87
2022-12-25T07:06:47.494Z,1.85
2022-12-25T07:09:14.198Z,1.85
2022-12-25T07:11:40.799Z,1.85
2022-12-25T07:14:23.225Z,1.86
2022-12-25T07:16:50.723Z,1.86
2022-12-25T07:19:17.566Z,1.85
2022-12-25T07:21:44.228Z,1.83
2022-12-25T07:24:10.832Z,1.85
2022-12-25T07:26:37.443Z,1.85
2022-12-25T07:29:04.195Z,1.84
2022-12-25T07:31:32.323Z,1.83
2022-12-25T07:33:58.966Z,1.83
2022-12-25T07:36:25.644Z,1.85
2022-12-25T07:38:52.325Z,1.84
2022-12-25T07:41:19.160Z,1.83
2022-12-25T07:43:49.689Z,1.85
2022-12-25T07:46:16.433Z,1.86
2022-12-25T07:48:44.637Z,1.88
2022-12-25T07:51:13.907Z,1.90
2022-12-25T07:53:41.044Z,1.92
2022-12-25T07:56:11.477Z,1.97
2022-12-25T07:58:38.450Z,1.99
2022-12-25T08:01:07.042Z,2.02
2022-12-25T08:03:35.065Z,2.04
2022-12-25T08:06:05.674Z,2.06
2022-12-25T08:08:32.464Z,2.10
2022-12-25T08:10:59.182Z,2.14
2022-12-25T08:13:25.947Z,2.18
2022-12-25T08:15:57.011Z,2.23
2022-12-25T08:18:29.451Z,2.27
2022-12-25T08:20:56.684Z,2.31
2022-12-25T08:23:24.750Z,2.33
2022-12-25T08:25:51.406Z,2.36
2022-12-25T08:28:18.044Z,2.38
2022-12-25T08:30:44.681Z,2.41
2022-12-25T08:33:11.402Z,2.45
2022-12-25T08:35:38.028Z,2.49
2022-12-25T08:38:04.641Z,2.54
2022-12-25T08:40:32.671Z,2.58
2022-12-25T08:42:59.282Z,2.64
2022-12-25T08:45:31.185Z,2.68
2022-12-25T08:48:01.257Z,2.69
2022-12-25T08:50:27.909Z,2.72
2022-12-25T08:52:54.570Z,2.77
2022-12-25T08:55:21.280Z,2.83
2022-12-25T08:57:52.249Z,2.88
2022-12-25T09:00:19.626Z,2.94
2022-12-25T09:02:46.297Z,2.99
2022-12-25T09:05:13.206Z,3.02
2022-12-25T09:07:39.841Z,3.04
2022-12-25T09:10:07.959Z,3.09
2022-12-25T09:12:34.634Z,3.13
2022-12-25T09:15:02.791Z,3.16
2022-12-25T09:17:29.392Z,3.21
2022-12-25T09:19:56.081Z,3.24
2022-12-25T09:22:22.740Z,3.27
2022-12-25T09:24:49.392Z,3.31
2022-12-25T09:27:16.090Z,3.37
2022-12-25T09:29:42.872Z,3.43
2022-12-25T09:32:11.047Z,3.49
2022-12-25T09:34:37.702Z,3.55
2022-12-25T09:37:04.379Z,3.59
2022-12-25T09:39:31.024Z,3.63
2022-12-25T09:42:01.625Z,3.67
2022-12-25T09:44:32.126Z,3.69
2022-12-25T09:47:02.655Z,3.75
2022-12-25T09:49:37.100Z,3.79
2022-12-25T09:52:08.222Z,3.86
2022-12-25T09:54:41.818Z,3.93
2022-12-25T09:57:11.934Z,4.03
2022-12-25T09:59:38.943Z,4.12
2022-12-25T10:02:33.752Z,4.19
2022-12-25T10:05:24.012Z,4.27
2022-12-25T10:08:00.263Z,4.36
2022-12-25T10:10:43.375Z,4.45
2022-12-25T10:13:26.289Z,4.52
2022-12-25T10:16:04.078Z,4.61
2022-12-25T10:18:47.989Z,4.66
2022-12-25T10:21:18.777Z,4.71
2022-12-25T10:23:50.048Z,4.77
2022-12-25T10:26:18.202Z,4.82
2022-12-25T10:28:47.942Z,4.88
2022-12-25T10:31:19.533Z,4.93
2022-12-25T10:33:46.787Z,4.98
2022-12-25T10:36:14.774Z,5.04
2022-12-25T10:38:42.791Z,5.08
2022-12-25T10:41:21.942Z,5.13
2022-12-25T10:43:50.699Z,5.19
2022-12-25T10:46:19.211Z,5.22
2022-12-25T10:48:49.435Z,5.26
2022-12-25T10:51:28.162Z,5.29
2022-12-25T10:53:56.691Z,5.35
2022-12-25T10:56:23.697Z,5.38
2022-12-25T10:58:50.431Z,5.42
2022-12-25T11:01:17.346Z,5.46
2022-12-25T11:03:46.017Z,5.53
2022-12-25T11:06:22.827Z,5.59
2022-12-25T11:08:53.239Z,5.64
2022-12-25T11:11:21.851Z,5.70
2022-12-25T11:13:50.764Z,5.74
2022-12-25T11:16:27.984Z,5.80
2022-12-25T11:18:55.803Z,5.82
2022-12-25T11:21:24.701Z,5.84
2022-12-25T11:23:57.331Z,5.85
2022-12-25T11:26:26.514Z,5.86
2022-12-25T11:28:54.717Z,5.89
2022-12-25T11:31:29.480Z,5.89
2022-12-25T11:34:00.983Z,5.90
2022-12-25T11:36:32.602Z,5.93
2022-12-25T11:39:07.991Z,5.94
2022-12-25T11:41:38.016Z,5.96
2022-12-25T11:44:14.929Z,5.99
2022-12-25T11:46:45.810Z,6.01
2022-12-25T11:49:18.577Z,6.01
2022-12-25T11:51:49.035Z,6.01
2022-12-25T11:54:23.067Z,6.02
2022-12-25T11:56:51.032Z,6.04
2022-12-25T11:59:22.778Z,6.07
2022-12-25T12:01:54.793Z,6.09
2022-12-25T12:04:29.965Z,6.12
2022-12-25T12:07:04.870Z,6.13
2022-12-25T12:09:42.716Z,6.15
2022-12-25T12:12:18.708Z,6.16
2022-12-25T12:14:55.618Z,6.18
2022-12-25T12:17:22.340Z,6.21
2022-12-25T12:19:48.996Z,6.23
2022-12-25T12:22:20.175Z,6.24
2022-12-25T12:24:53.228Z,6.25
2022-12-25T12:27:25.158Z,6.26
2022-12-25T12:29:55.778Z,6.28
2022-12-25T12:32:37.684Z,6.28
2022-12-25T12:35:14.887Z,6.28
2022-12-25T12:37:42.698Z,6.28
2022-12-25T12:40:33.614Z,6.30
2022-12-25T12:43:03.117Z,6.32
2022-12-25T12:45:32.340Z,6.32
2022-12-25T12:47:59.629Z,6.33
2022-12-25T12:50:36.218Z,6.33
2022-12-25T12:53:18.324Z,6.34
2022-12-25T12:55:45.087Z,6.34
2022-12-25T12:58:29.318Z,6.34
2022-12-25T13:01:08.653Z,6.35
2022-12-25T13:03:52.041Z,6.37
2022-12-25T13:06:23.654Z,6.39
2022-12-25T13:09:02.242Z,6.41
2022-12-25T13:11:31.304Z,6.40
2022-12-25T13:14:02.434Z,6.41
2022-12-25T13:16:33.393Z,6.42
2022-12-25T13:19:05.620Z,6.43
2022-12-25T13:21:33.377Z,6.44
2022-12-25T13:24:02.044Z,6.45
2022-12-25T13:26:29.580Z,6.45
2022-12-25T13:28:56.828Z,6.46
2022-12-25T13:31:26.781Z,6.46
2022-12-25T13:33:58.169Z,6.45
2022-12-25T13:36:27.122Z,6.46
2022-12-25T13:38:56.442Z,6.43
2022-12-25T13:41:26.707Z,6.43
2022-12-25T13:43:58.156Z,6.42
2022-12-25T13:46:27.354Z,6.42
2022-12-25T13:48:58.554Z,6.42
2022-12-25T13:51:25.119Z,6.42
2022-12-25T13:54:02.433Z,6.42
2022-12-25T13:56:29.246Z,6.42
2022-12-25T13:58:56.126Z,6.42
2022-12-25T14:01:22.865Z,6.44
2022-12-25T14:03:50.876Z,6.44
2022-12-25T14:06:19.673Z,6.42
2022-12-25T14:08:47.908Z,6.42
2022-12-25T14:11:16.460Z,6.42
2022-12-25T14:13:45.128Z,6.40
2022-12-25T14:16:15.474Z,6.41
2022-12-25T14:18:52.564Z,6.39
2022-12-25T14:21:27.776Z,6.37
2022-12-25T14:23:54.823Z,6.36
2022-12-25T14:26:23.370Z,6.35
2022-12-25T14:28:52.876Z,6.33
2022-12-25T14:31:20.630Z,6.32
2022-12-25T14:33:49.236Z,6.30
2022-12-25T14:36:17.970Z,6.30
2022-12-25T14:38:44.615Z,6.30
2022-12-25T14:41:26.157Z,6.30
2022-12-25T14:43:54.807Z,6.29
2022-12-25T14:46:23.857Z,6.28
2022-12-25T14:48:58.797Z,6.28
2022-12-25T14:51:27.106Z,6.26
2022-12-25T14:53:56.584Z,6.25
2022-12-25T14:56:25.515Z,6.24
2022-12-25T14:58:54.805Z,6.23
2022-12-25T15:01:27.125Z,6.24
2022-12-25T15:04:04.624Z,6.25
2022-12-25T15:06:32.949Z,6.26
2022-12-25T15:09:01.289Z,6.25
2022-12-25T15:11:28.872Z,6.25
2022-12-25T15:13:55.662Z,6.26
2022-12-25T15:16:24.528Z,6.28
2022-12-25T15:18:52.576Z,6.30
2022-12-25T15:21:25.190Z,6.30
2022-12-25T15:23:53.989Z,6.33
2022-12-25T15:26:20.816Z,6.34
2022-12-25T15:28:47.580Z,6.35
2022-12-25T15:31:20.337Z,6.38
2022-12-25T15:33:46.974Z,6.40
2022-12-25T15:36:13.911Z,6.43
2022-12-25T15:38:40.535Z,6.44
2022-12-25T15:41:13.402Z,6.47
2022-12-25T15:43:41.076Z,6.48
2022-12-25T15:46:09.324Z,6.50
2022-12-25T15:48:35.987Z,6.52
2022-12-25T15:51:02.593Z,6.54
2022-12-25T15:53:29.193Z,6.56
2022-12-25T15:55:55.824Z,6.58
2022-12-25T15:58:23.863Z,6.62
2022-12-25T16:00:50.658Z,6.64
2022-12-25T16:03:17.308Z,6.66
2022-12-25T16:05:43.958Z,6.67
2022-12-25T16:08:10.563Z,6.70
2022-12-25T16:10:39.152Z,6.71
2022-12-25T16:13:07.151Z,6.74
2022-12-25T16:15:35.352Z,6.75
2022-12-25T16:18:02.017Z,6.76
2022-12-25T16:20:28.634Z,6.77
2022-12-25T16:22:55.259Z,6.78
2022-12-25T16:25:21.853Z,6.80
2022-12-25T16:27:48.398Z,6.81
2022-12-25T16:30:17.447Z,6.83
2022-12-25T16:32:49.604Z,6.83
2022-12-25T16:35:16.311Z,6.84
2022-12-25T16:37:43.041Z,6.85
2022-12-25T16:40:10.340Z,6.86
2022-12-25T16:42:37.306Z,6.88
2022-12-25T16:45:04.806Z,6.88
2022-12-25T16:47:31.593Z,6.90
2022-12-25T16:49:59.670Z,6.91
2022-12-25T16:52:26.457Z,6.92
2022-12-25T16:54:53.221Z,6.93
2022-12-25T16:57:19.843Z,6.96
2022-12-25T16:59:46.585Z,6.98
2022-12-25T17:02:15.541Z,6.99
2022-12-25T17:04:42.793Z,7.01
2022-12-25T17:07:11.177Z,7.03
2022-12-25T17:09:43.859Z,7.05
2022-12-25T17:12:11.115Z,7.06
2022-12-25T17:14:37.819Z,7.07
2022-12-25T17:17:04.528Z,7.07
2022-12-25T17:19:31.319Z,7.08
2022-12-25T17:21:58.127Z,7.10
2022-12-25T17:24:26.456Z,7.11
2022-12-25T17:26:53.450Z,7.13
2022-12-25T17:29:22.393Z,7.14
2022-12-25T17:31:49.684Z,7.16
2022-12-25T17:34:16.323Z,7.16
2022-12-25T17:36:43.038Z,7.18
2022-12-25T17:39:11.061Z,7.19
2022-12-25T17:41:39.270Z,7.20
2022-12-25T17:44:05.858Z,7.21
2022-12-25T17:46:32.740Z,7.22
2022-12-25T17:49:01.104Z,7.23
2022-12-25T17:51:31.432Z,7.25
2022-12-25T17:54:00.325Z,7.26
2022-12-25T17:56:26.989Z,7.28
2022-12-25T17:58:56.647Z,7.30
2022-12-25T18:01:24.985Z,7.31
2022-12-25T18:03:52.262Z,7.32
2022-12-25T18:06:21.230Z,7.33
2022-12-25T18:08:48.673Z,7.34
2022-12-25T18:11:17.718Z,7.36
2022-12-25T18:13:45.890Z,7.36
2022-12-25T18:16:14.588Z,7.39
2022-12-25T18:18:45.192Z,7.40
2022-12-25T18:21:16.283Z,7.41
2022-12-25T18:23:42.949Z,7.42
2022-12-25T18:26:11.001Z,7.45
2022-12-25T18:28:38.013Z,7.47
2022-12-25T18:31:07.633Z,7.48
2022-12-25T18:33:35.866Z,7.50
2022-12-25T18:36:02.814Z,7.51
2022-12-25T18:38:29.475Z,7.51
2022-12-25T18:40:56.138Z,7.51
2022-12-25T18:43:53.159Z,7.51
2022-12-25T18:46:09.751Z,7.52
2022-12-25T18:48:39.154Z,7.53
2022-12-25T18:51:08.561Z,7.54
2022-12-25T18:53:36.103Z,7.54
2022-12-25T18:56:05.940Z,7.55
2022-12-25T18:58:32.796Z,7.56
2022-12-25T19:00:59.510Z,7.58
2022-12-25T19:03:26.278Z,7.60
2022-12-25T19:05:54.350Z,7.61
2022-12-25T19:08:20.930Z,7.63
2022-12-25T19:10:47.559Z,7.63
2022-12-25T19:13:14.233Z,7.65
2022-12-25T19:15:42.536Z,7.68
2022-12-25T19:18:09.286Z,7.70
2022-12-25T19:20:38.739Z,7.72
2022-12-25T19:23:06.864Z,7.73
2022-12-25T19:25:33.717Z,7.74
2022-12-25T19:28:00.366Z,7.75
2022-12-25T19:30:26.974Z,7.75
2022-12-25T19:32:53.631Z,7.76
2022-12-25T19:35:20.191Z,7.77
2022-12-25T19:37:46.980Z,7.78
2022-12-25T19:40:15.002Z,7.79
2022-12-25T19:42:41.561Z,7.81
2022-12-25T19:45:09.061Z,7.82
2022-12-25T19:47:35.719Z,7.83
2022-12-25T19:50:03.432Z,7.84
2022-12-25T19:52:30.398Z,7.85
2022-12-25T19:54:57.170Z,7.86
2022-12-25T19:57:25.296Z,7.87
2022-12-25T19:59:52.253Z,7.88
2022-12-25T20:02:19.123Z,7.91
2022-12-25T20:04:45.891Z,7.92
2022-12-25T20:07:12.669Z,7.94
2022-12-25T20:09:39.481Z,7.95
2022-12-25T20:12:06.617Z,7.96
2022-12-25T20:14:34.800Z,7.98
2022-12-25T20:17:01.762Z,7.99
2022-12-25T20:19:28.535Z,8.01
2022-12-25T20:21:55.519Z,8.03
2022-12-25T20:24:22.454Z,8.04
2022-12-25T20:26:51.481Z,8.07
2022-12-25T20:29:22.308Z,8.08
2022-12-25T20:31:51.624Z,8.10
2022-12-25T20:34:18.482Z,8.11
2022-12-25T20:36:45.050Z,8.12
2022-12-25T20:39:12.634Z,8.13
2022-12-25T20:41:39.461Z,8.15
2022-12-25T20:44:08.123Z,8.15
2022-12-25T20:46:34.840Z,8.17
2022-12-25T20:49:03.561Z,8.19
2022-12-25T20:51:30.360Z,8.22
2022-12-25T20:53:57.378Z,8.22
2022-12-25T20:56:26.442Z,8.23
2022-12-25T20:58:54.356Z,8.25
2022-12-25T21:01:21.179Z,8.27
2022-12-25T21:03:47.887Z,8.27
2022-12-25T21:06:16.129Z,8.28
2022-12-25T21:08:42.737Z,8.29
2022-12-25T21:11:10.791Z,8.29
2022-12-25T21:13:39.469Z,8.32
2022-12-25T21:16:07.570Z,8.35
2022-12-25T21:18:34.674Z,8.38
2022-12-25T21:21:02.211Z,8.41
2022-12-25T21:23:30.433Z,8.41
2022-12-25T21:25:57.368Z,8.44
2022-12-25T21:28:24.635Z,8.46
2022-12-25T21:30:51.347Z,8.49
2022-12-25T21:33:18.144Z,8.50
2022-12-25T21:35:44.755Z,8.52
2022-12-25T21:38:11.541Z,8.54
2022-12-25T21:40:39.712Z,8.57
2022-12-25T21:43:06.531Z,8.59
2022-12-25T21:45:33.783Z,8.62
2022-12-25T21:48:02.972Z,8.65
2022-12-25T21:50:32.503Z,8.67
2022-12-25T21:53:02.713Z,8.70
2022-12-25T21:55:29.371Z,8.71
2022-12-25T21:57:57.389Z,8.73
2022-12-25T22:00:23.967Z,8.75
2022-12-25T22:02:50.643Z,8.76
2022-12-25T22:05:17.421Z,8.77
2022-12-25T22:07:44.085Z,8.79
2022-12-25T22:10:10.727Z,8.82
2022-12-25T22:12:37.334Z,8.86
2022-12-25T22:15:08.045Z,8.89
2022-12-25T22:17:36.875Z,8.92
2022-12-25T22:20:05.433Z,8.94
2022-12-25T22:22:32.325Z,8.97
2022-12-25T22:25:00.699Z,8.99
2022-12-25T22:27:31.216Z,9.02
2022-12-25T22:29:58.053Z,9.04
2022-12-25T22:32:26.529Z,9.05
2022-12-25T22:34:53.196Z,9.06
2022-12-25T22:37:20.043Z,9.06
2022-12-25T22:39:46.977Z,9.08
2022-12-25T22:42:13.817Z,9.10
2022-12-25T22:44:40.581Z,9.08
2022-12-25T22:47:07.431Z,9.12
2022-12-25T22:49:35.442Z,9.13
2022-12-25T22:52:02.287Z,9.15
2022-12-25T22:54:30.556Z,9.17
2022-12-25T22:56:57.930Z,9.18
2022-12-25T22:59:24.514Z,9.18
2022-12-25T23:01:51.218Z,9.20
2022-12-25T23:04:18.210Z,9.21
2022-12-25T23:06:46.753Z,9.21
2022-12-25T23:09:20.579Z,9.24
2022-12-25T23:11:50.917Z,9.25
2022-12-25T23:14:17.536Z,9.25
2022-12-25T23:16:44.525Z,9.26
2022-12-25T23:19:12.401Z,9.26
2022-12-25T23:21:40.291Z,9.27
2022-12-25T23:24:09.650Z,9.28
2022-12-25T23:26:36.437Z,9.30
2022-12-25T23:29:03.516Z,9.32
2022-12-25T23:31:32.677Z,9.32
2022-12-25T23:33:59.734Z,9.34
2022-12-25T23:36:26.443Z,9.35
2022-12-25T23:38:53.091Z,9.36
2022-12-25T23:41:21.454Z,9.37
2022-12-25T23:43:48.149Z,9.38
2022-12-25T23:46:15.134Z,9.38
2022-12-25T23:48:41.819Z,9.39
2022-12-25T23:51:08.687Z,9.38
2022-12-25T23:53:35.752Z,9.40
2022-12-25T23:56:02.969Z,9.40
2022-12-25T23:58:31.050Z,9.41
